WetterOnline ( https://www.wetteronline.de )

Wetter aktuell Meckenheim

Aktuelles Wetter: Nürburg-Barweiler (488m)

6-stündlich | Neueste Meldungen
Ortszeit Temperatur Wetter
Di, 17.05. 8:00 12.0° C wolkig
Di, 17.05. 2:00 12.7° C wolkenlos
Mo, 16.05. 20:00 18.6° C wolkig
Mo, 16.05. 14:00 22.6° C wolkig
Mo, 16.05. 8:00 16.1° C wolkig
Mo, 16.05. 2:00 17.4° C wolkenlos
So, 15.05. 20:00 20.5° C bewölkt
So, 15.05. 14:00 20.9° C leicht bewölkt
Ortszeit Temperatur Wetter
Di, 17.05. 9:00 15.8° C wolkig
Di, 17.05. 8:50 15.8° C bewölkt
Di, 17.05. 8:40 15.2° C bedeckt
Di, 17.05. 8:30 14.5° C wolkig
Di, 17.05. 8:20 14.5° C wolkig
Di, 17.05. 8:10 14.1° C bewölkt
Di, 17.05. 8:00 12.0° C wolkig
Di, 17.05. 7:30 12.2° C wolkig
Di, 17.05. 7:00 10.9° C wolkig
Di, 17.05. 6:30 10.3° C bewölkt
Di, 17.05. 6:00 9.5° C wolkig
Ortszeit Relative Feuchte Sichtweite
Di, 17.05. 8:00 85% 40 km
Di, 17.05. 2:00 80% 45 km
Mo, 16.05. 20:00 63% 60 km
Mo, 16.05. 14:00 52% 55 km
Mo, 16.05. 8:00 63% 55 km
Mo, 16.05. 2:00 49% 55 km
So, 15.05. 20:00 42% 50 km
So, 15.05. 14:00 43% 50 km
Ortszeit Relative Feuchte Sichtweite
Di, 17.05. 9:00 72% >70 km
Di, 17.05. 8:50 72% -
Di, 17.05. 8:40 75% -
Di, 17.05. 8:30 76% 55 km
Di, 17.05. 8:20 76% -
Di, 17.05. 8:10 77% -
Di, 17.05. 8:00 85% 40 km
Di, 17.05. 7:30 85% 40 km
Di, 17.05. 7:00 86% 35 km
Di, 17.05. 6:30 87% 40 km
Di, 17.05. 6:00 93% 30 km
Ortszeit Niederschlagsmenge Niederschlagsart
Di, 17.05. 8:00 0.0 l/m2 in 12 Std. -
Di, 17.05. 2:00 0.0 l/m2 in 6 Std. -
Mo, 16.05. 20:00 0.3 l/m2 in 12 Std. Regen
Mo, 16.05. 14:00 0.0 l/m2 in 6 Std. -
Mo, 16.05. 8:00 0.1 l/m2 in 12 Std. Regen
Mo, 16.05. 2:00 0.0 l/m2 in 6 Std. -
So, 15.05. 20:00 0.0 l/m2 in 12 Std. -
So, 15.05. 14:00 0.0 l/m2 in 6 Std. -
Ortszeit Niederschlagsmenge Niederschlagsart
Di, 17.05. 9:00 0.0 l/m2 in 1 Std. -
Di, 17.05. 8:50 keine Meldung -
Di, 17.05. 8:40 keine Meldung -
Di, 17.05. 8:30 0.0 l/m2 in 1 Std. -
Di, 17.05. 8:20 keine Meldung -
Di, 17.05. 8:10 keine Meldung -
Di, 17.05. 8:00 0.0 l/m2 in 1 Std. -
Di, 17.05. 7:30 0.0 l/m2 in 1 Std. -
Di, 17.05. 7:00 0.0 l/m2 in 1 Std. -
Di, 17.05. 6:30 0.0 l/m2 in 1 Std. -
Di, 17.05. 6:00 0.0 l/m2 in 1 Std. -
Ortszeit Stärke Spitze Richtung
km/h Bft. km/h Grad Sektor
Di, 17.05. 8:00 4 1 11 200° S
Di, 17.05. 2:00 4 1 22 230° SW
Mo, 16.05. 20:00 14 3 47 280° W
Mo, 16.05. 14:00 25 4 43 240° SW
Mo, 16.05. 8:00 7 2 25 200° S
Mo, 16.05. 2:00 17 3 31 120° SO
So, 15.05. 20:00 17 3 35 80° O
So, 15.05. 14:00 15 3 30 110° O
Ortszeit Stärke Spitze Richtung
km/h Bft. km/h Grad Sektor
Di, 17.05. 9:00 6 1 9 170° S
Di, 17.05. 8:50 6 1 - 170° S
Di, 17.05. 8:40 4 1 - 200° S
Di, 17.05. 8:30 6 1 9 180° S
Di, 17.05. 8:20 6 1 - 180° S
Di, 17.05. 8:10 7 2 - 180° S
Di, 17.05. 8:00 4 1 7 200° S
Di, 17.05. 7:30 4 1 4 170° S
Di, 17.05. 7:00 4 1 7 240° SW
Di, 17.05. 6:30 6 1 7 180° S
Di, 17.05. 6:00 4 1 7 60° NO
Ortszeit Untergrenze Bedeckung Gattung
total tief tief mittel hoch
Di, 17.05. 8:00 2700 m 7/8 4/8 - - -
Di, 17.05. 2:00 - 0/8 0/8 - - -
Mo, 16.05. 20:00 5400 m 8/8 4/8 - - -
Mo, 16.05. 14:00 1170 m 7/8 2/8 - - -
Mo, 16.05. 8:00 2100 m 8/8 1/8 - - -
Mo, 16.05. 2:00 - 0/8 0/8 - - -
So, 15.05. 20:00 6300 m 7/8 6/8 - - -
So, 15.05. 14:00 9000 m 6/8 0/8 - - -
Ortszeit Bedeckungsgrad in Achtel und Wolkenuntergrenze
Di, 17.05. 9:00 4(2700m) 4(6300m) 8(7500m)
Di, 17.05. 8:50 4(2700m) 4(6300m) 8(7500m)
Di, 17.05. 8:40 8
Di, 17.05. 8:30 8(7500m)
Di, 17.05. 8:20 8(7500m)
Di, 17.05. 8:10 7
Di, 17.05. 8:00 4(2700m) 4(6900m) 7(7800m)
Di, 17.05. 7:30 1(2700m) 6(6600m) 8(8100m)
Di, 17.05. 7:00 1(2400m) 8(8400m) 8(9000m)
Di, 17.05. 6:30 6(6600m) 8(8400m) 8(10500m)
Di, 17.05. 6:00 1(6300m) 8(9000m) 8(9000m)
Ortszeit Luftdruck NN (hPa) Tendenz (hPa in 3 Std.)
Di, 17.05. 8:00 1023 + 0,8
Di, 17.05. 2:00 1022 + 0,5
Mo, 16.05. 20:00 1018 + 0,9
Mo, 16.05. 14:00 1015 + 0,2
Mo, 16.05. 8:00 1015 + 0,5
Mo, 16.05. 2:00 1015 - 0,8
So, 15.05. 20:00 1015 - 1,4
So, 15.05. 14:00 1017 - 1,0
Ortszeit Luftdruck NN (hPa) Tendenz (hPa in 3 Std.)
Di, 17.05. 9:00 1022 + 0,5
Di, 17.05. 8:50 1022 keine Meldung
Di, 17.05. 8:40 1022 keine Meldung
Di, 17.05. 8:30 1022 + 0,6
Di, 17.05. 8:20 1022 keine Meldung
Di, 17.05. 8:10 1022 keine Meldung
Di, 17.05. 8:00 1023 + 0,8
Di, 17.05. 7:30 1022 + 0,6
Di, 17.05. 7:00 1022 + 0,6
Di, 17.05. 6:30 1022 + 0,3
Di, 17.05. 6:00 1023 + 0,2
Ortszeit Schneehöhe (cm)
Di, 17.05. 8:00 0
Di, 17.05. 2:00 0
Mo, 16.05. 20:00 0
Mo, 16.05. 14:00 0
Mo, 16.05. 8:00 0
Mo, 16.05. 2:00 0
So, 15.05. 20:00 0
So, 15.05. 14:00 0
Ortszeit Schneehöhe (cm)
Di, 17.05. 9:00 0
Di, 17.05. 8:50 0
Di, 17.05. 8:40 0
Di, 17.05. 8:30 0
Di, 17.05. 8:20 0
Di, 17.05. 8:10 0
Di, 17.05. 8:00 0
Di, 17.05. 7:30 0
Di, 17.05. 7:00 0
Di, 17.05. 6:30 0
Di, 17.05. 6:00 0
Link zu dieser Seite / Seite empfehlen

Das Wetter in ...